Terminal Aerodrome Forecast
Issued by NWS

Home | Current Version | Previous Version | Text Only | Print | Product List | Glossary On
Versions: 1 2 3 4 5 6 7 8 9 10 11 12
000
FTUS46 KSTO 282300
TAFMHR
TAF
KMHR 282332Z 2900/2924 23006KT P6SM SCT250
     FM290500 16005KT P6SM SCT200
     FM291500 23006KT P6SM BKN200=

USA.gov is the U.S. government's official web portal to all federal, state and local government web resources and services.